x

9411340 - Santa Barbara, Ca (ntbc1) Weather Station

6:36 - Mon 27th Mar 2017 All times are PDT. -7 hours from GMT.

  • Wind
    8mph, 14mph gusts
  • Air Temp 58°f
  • Sea Pressure 1015.7mb
  • 9411340 - Santa Barbara, Ca
  • 9411340 - Santa Barbara, Ca

More Historic Weather Station data

Upgrade to MSW Pro to gain access to the past 30 days of data for over 8000 Wavebouys and Weather Stations around the globe.

Join Pro

Comparision Forecast

View Surf forecast
   
lun. 03/27 6:36 8 14 mph 1015.7mb 58f
6:30 11 17 mph 1015.7mb 59f
6:24 7 13 mph 1015.8mb 59f
6:18 5 9 mph 1015.8mb 59f
6:12 5 8 mph 1015.8mb 59f
6:06 3 7 mph 1015.8mb 59f
6:00 6 9 mph 1015.7mb 58f
5:36 6 11 mph 1015.6mb 58f
5:30 5 10 mph 1015.6mb 58f
5:24 9 11 mph 1015.5mb 58f
5:18 10 13 mph 1015.6mb 59f
5:12 5 9 mph 1015.8mb 58f
5:06 3 7 mph 1015.8mb 58f
5:00 6 9 mph 1015.9mb 58f
4:36 13 20 mph 1016mb 58f
4:30 11 21 mph 1015.8mb 59f
4:24 10 18 mph 1015.8mb 60f
4:18 10 17 mph 1015.9mb 60f
4:12 6 10 mph 1015.9mb 59f
4:06 3 11 mph 1015.8mb 58f
4:00 7 13 mph 1015.8mb 59f
3:36 3 9 mph 1016mb 58f
3:30 3 7 mph 1016mb 58f
3:24 5 6 mph 1016.1mb 57f
3:18 5 7 mph 1016.1mb 57f
3:12 5 7 mph 1016.1mb 57f
3:06 5 7 mph 1016.2mb 58f
3:00 3 7 mph 1016.3mb 59f
2:36 5 8 mph 1016.6mb 58f
2:30 5 9 mph 1016.4mb 58f
2:24 6 9 mph 1016.5mb 58f
2:18 7 13 mph 1016.5mb 58f
2:12 2 8 mph 1016.6mb 61f
2:06 8 16 mph 1016.5mb 62f
2:00 5 9 mph 1016.7mb 59f
1:36 6 10 mph 1016.9mb 58f
1:30 3 9 mph 1017mb 57f
1:24 5 8 mph 1016.9mb 57f
1:18 6 8 mph 1017mb 57f
1:12 3 6 mph 1017mb 57f
1:06 3 7 mph 1017.1mb 57f
1:00 5 6 mph 1017mb 57f
12:36 6 10 mph 1017mb 58f
12:30 7 10 mph 1017mb 57f
12:24 9 11 mph 1017mb 56f
12:18 7 11 mph 1017.1mb 58f
12:12 7 13 mph 1016.9mb 58f
12:06 7 11 mph 1016.9mb 58f
12:00 8 11 mph 1016.9mb 58f
dim. 03/26 11:36 9 14 mph 1016.9mb 58f
11:30 9 13 mph 1017mb 58f
11:24 8 13 mph 1017mb 58f
11:18 8 14 mph 1017mb 58f
11:12 9 15 mph 1017mb 58f
11:06 10 14 mph 1017mb 58f
11:00 8 15 mph 1017.1mb 58f
10:36 7 10 mph 1017.2mb 58f
10:30 5 8 mph 1017.3mb 58f
10:24 2 5 mph 1017.3mb 58f
10:18 3 5 mph 1017.4mb 58f
10:12 5 6 mph 1017.4mb 58f
10:06 3 7 mph 1017.3mb 58f
10:00 2 5 mph 1017.4mb 58f
9:36  -  5 mph 1017.1mb 58f
9:30 2 3 mph 1017.1mb 58f
9:24 2 3 mph 1017.1mb 58f
9:18  -  1 mph 1016.9mb 58f
9:12  -  2 mph 1016.9mb 58f
9:06 2
mph
1016.8mb 58f
9:00 2
mph
1016.8mb 58f
8:36  -  1 mph 1016.5mb 58f
8:30 1 2 mph 1016.5mb 58f
8:24  -  2 mph 1016.4mb 58f
8:18  -  2 mph 1016.3mb 58f
8:12  -  1 mph 1016.3mb 58f
8:06  -  1 mph 1016.2mb 58f
8:00  -  2 mph 1016.2mb 58f
7:36 2
mph
1016.2mb 58f
7:30 2 3 mph 1016.2mb 58f
7:24 1 2 mph 1016.2mb 58f
7:18 2 3 mph 1016.1mb 58f
7:12 2 5 mph 1016.1mb 58f
7:06 1 3 mph 1016.1mb 58f
7:00 3 5 mph 1016.1mb 58f
6:36 1 5 mph 1016.1mb 59f
6:30 5 7 mph 1016.1mb 58f
6:24 7 8 mph 1016mb 58f
6:18 8 10 mph 1015.9mb 58f
6:12 7 9 mph 1015.9mb 58f
6:06 3 8 mph 1015.9mb 59f
6:00 6 7 mph 1016mb 58f
5:36 2 3 mph 1016.3mb 59f
5:30 2 5 mph 1016.3mb 59f
5:24 3 6 mph 1016.2mb 59f
5:18 3 6 mph 1016.3mb 59f
5:12 5 6 mph 1016.3mb 59f
5:06 5 6 mph 1016.4mb 59f
5:00 5 7 mph 1016.5mb 59f
4:36 6 9 mph 1016.7mb 59f
4:30 7 8 mph 1016.8mb 59f
4:24 5 7 mph 1016.8mb 59f
4:18 6 7 mph 1016.9mb 58f
4:12 6 7 mph 1017mb 58f
4:06 6 7 mph 1017mb 59f
4:00 6 7 mph 1017mb 58f
3:36 5 8 mph 1017.3mb 60f
3:30 5 7 mph 1017.3mb 59f
3:24 5 7 mph 1017.3mb 59f
3:18 5 8 mph 1017.2mb 59f
3:12 6 7 mph 1017.4mb 58f
3:06 6
mph
1017.5mb 58f
3:00 5 6 mph 1017.6mb 58f
2:36 2 5 mph 1018mb 59f
2:30 3 6 mph 1018mb 58f
2:24 3 6 mph 1018.1mb 59f
2:18 2 5 mph 1018.2mb 59f
2:12 5 6 mph 1018.2mb 58f
2:06 5 7 mph 1018.2mb 57f
2:00 5 6 mph 1018.2mb 59f
1:36 3 6 mph 1018.4mb 60f
1:30 3 8 mph 1018.4mb 59f
1:24 5 7 mph 1018.6mb 58f
1:18 6
mph
1018.7mb 57f
1:12 3 5 mph 1018.7mb 58f
1:06 3 5 mph 1018.7mb 58f
1:00 2 6 mph 1018.8mb 58f
12:36 2 3 mph 1018.8mb 59f
12:30 2 3 mph 1018.8mb 59f
12:24 2 5 mph 1018.8mb 57f
12:18 3 6 mph 1018.7mb 58f
12:12 5 6 mph 1018.8mb 57f
12:06 6 7 mph 1018.8mb 57f
12:00 3 6 mph 1018.9mb 59f
11:36 5 6 mph 1018.7mb 57f
11:30 3 5 mph 1018.8mb 57f
11:24 3 5 mph 1018.9mb 57f
11:18 3 5 mph 1018.8mb 57f
11:12 5 6 mph 1018.7mb 57f
11:06 5 6 mph 1018.7mb 57f
11:00 3
mph
1018.8mb 57f
10:36 3 5 mph 1018.6mb 57f
10:30 5 6 mph 1018.5mb 56f
10:24 5 6 mph 1018.4mb 57f
10:18 5 6 mph 1018.3mb 56f
10:12 3 7 mph 1018.3mb 57f
10:06 5 7 mph 1018.1mb 57f
10:00 5 7 mph 1018.1mb 57f
9:36 3 6 mph 1018.1mb 57f
9:30 5 6 mph 1018mb 56f
9:24 5 6 mph 1017.9mb 56f
9:18 5 6 mph 1018mb 56f
9:12 3 5 mph 1017.9mb 57f
9:06 3 6 mph 1017.9mb 56f
9:00 5 7 mph 1017.7mb 56f
8:36 5 6 mph 1017.6mb 56f
8:30 5 6 mph 1017.5mb 56f
8:24 3 6 mph 1017.6mb 56f
8:18 5 6 mph 1017.5mb 56f
8:12 3 5 mph 1017.4mb 56f
8:06 2 3 mph 1017.4mb 56f
8:00 3
mph
1017.4mb 55f
7:36 2 3 mph 1017.2mb 53f
7:30 2 3 mph 1017mb 53f
7:24 3 5 mph 1016.8mb 52f
7:18 2 3 mph 1016.8mb 51f
7:12 2 3 mph 1016.6mb 51f
7:06 2 3 mph 1016.6mb 51f
7:00 1 2 mph 1016.6mb 52f
6:54 2 3 mph 1016.6mb 51f
6:48 2 3 mph 1016.6mb 51f
6:36 3 5 mph 1016.6mb 51f
6:30 2
mph
1016.5mb 52f
6:24 2
mph
1016.5mb 52f
6:18 1 2 mph 1016.5mb 53f
6:12 2 5 mph 1016.5mb 52f
6:06 3
mph
1016.4mb 53f
6:00 1 3 mph 1016.4mb 52f
5:54 2 3 mph 1016.3mb 52f
5:48 2
mph
1016.2mb 52f
5:36 2 3 mph 1016.2mb 51f
5:30 3 5 mph 1016.1mb 51f
5:24 3
mph
1016mb 51f
5:18 2 3 mph 1016.1mb 51f
5:12 2 3 mph 1016mb 52f
5:06 2
mph
1016mb 53f
5:00 2 5 mph 1016mb 52f
4:36 2 3 mph 1016mb 53f
4:30 2 3 mph 1016mb 52f
4:24 2 3 mph 1016mb 52f
4:18 2 3 mph 1016mb 53f
4:12 2 3 mph 1016mb 53f
4:06 5 6 mph 1016mb 53f
4:00 3
mph
1016.1mb 53f
3:54 3
mph
1016.1mb 53f
3:48 2
mph
1016.2mb 53f
3:36 3
mph
1016.2mb 53f
3:30 3 5 mph 1016.2mb 54f
3:24 2 3 mph 1016.3mb 54f
3:18 2 5 mph 1016.4mb 54f
3:12 3 5 mph 1016.4mb 53f
3:06 5 6 mph 1016.5mb 53f
3:00 3 5 mph 1016.5mb 53f
2:54 5
mph
1016.6mb 53f
2:48 3 5 mph 1016.6mb 54f
2:36 3 5 mph 1016.6mb 53f
2:30 3 5 mph 1016.7mb 54f
2:24 3
mph
1016.7mb 54f
2:18 2 3 mph 1016.6mb 55f
2:12 3 5 mph 1016.6mb 54f
2:06 5
mph
1016.6mb 55f
2:00 3
mph
1016.6mb 55f
1:54 2 3 mph 1016.6mb 55f
1:48 2 3 mph 1016.6mb 55f
1:36 3 5 mph 1016.7mb 55f
1:30 3 5 mph 1016.8mb 55f
1:24 3 5 mph 1016.8mb 56f
1:18 5 6 mph 1016.9mb 56f
1:12 5 6 mph 1016.9mb 56f
1:06 5 6 mph 1017mb 56f
1:00 5
mph
1017mb 56f
12:54 3 5 mph 1016.9mb 56f
12:48 3 5 mph 1016.9mb 56f
12:36 3 6 mph 1016.8mb 56f
12:30 3 5 mph 1016.9mb 56f
12:24 5 6 mph 1016.8mb 56f
12:18 5 6 mph 1016.8mb 56f
12:12 3 5 mph 1016.8mb 56f
12:06 3
mph
1016.6mb 56f
12:00 3 5 mph 1016.9mb 56f
sam. 03/25 11:54 2 3 mph 1017mb 56f
11:48 3 5 mph 1017mb 57f
11:36 3 5 mph 1017.1mb 57f
11:30 1 2 mph 1017.1mb 57f
11:24 2 5 mph 1017mb 57f
11:18 2 3 mph 1017mb 57f
11:12 2 3 mph 1017.1mb 57f
11:06 3 5 mph 1017.1mb 57f
11:00 2 3 mph 1017.1mb 57f
10:54 3 5 mph 1017.1mb 57f
10:48 1 2 mph 1017.1mb 57f
10:36 2 5 mph 1017.2mb 57f
10:30 3
mph
1017.1mb 57f
10:24 2
mph
1017.2mb 57f
10:18 2 5 mph 1017.2mb 58f
10:12 2 5 mph 1017.2mb 58f
10:06 2 3 mph 1017.3mb 58f
10:00 2 5 mph 1017.4mb 58f
9:54 2 5 mph 1017.4mb 58f
9:48 2 5 mph 1017.3mb 58f
9:36 3
mph
1017.3mb 58f
9:30 2 3 mph 1017.2mb 58f
9:24 3 5 mph 1017.1mb 58f
9:18 2 5 mph 1017.1mb 58f
9:12 1 5 mph 1017.1mb 58f
9:06 2 3 mph 1016.9mb 58f
9:00 1 5 mph 1016.9mb 58f
8:54  -  1 mph 1016.9mb 58f
8:48  -  3 mph 1016.9mb 58f
8:36 2 3 mph 1016.8mb 58f
8:30 1
mph
1016.7mb 58f
8:24  -  1 mph 1016.7mb 58f
8:18  -  2 mph 1016.7mb 58f
8:12 1 2 mph 1016.8mb 58f
8:06 2 5 mph 1016.7mb 58f
8:00 2 5 mph 1016.6mb 58f
7:54  -  2 mph 1016.6mb 58f
7:48  -  3 mph 1016.5mb 58f
7:36 5 7 mph 1016.5mb 58f
7:30 6 7 mph 1016.5mb 58f
7:24 5 6 mph 1016.6mb 58f
7:18 5 6 mph 1016.5mb 58f
7:12 3 6 mph 1016.5mb 58f
7:06 6 8 mph 1016.5mb 58f
7:00 5 7 mph 1016.6mb 58f
6:54 5 7 mph 1016.5mb 59f
6:48 5 8 mph 1016.4mb 58f
6:36 3 8 mph 1016.4mb 59f
6:30 8 11 mph 1016.2mb 59f
6:24 7 10 mph 1016.1mb 59f
6:18 8 11 mph 1016mb 59f
6:12 8 11 mph 1016mb 59f
6:06 7 10 mph 1016mb 59f
6:00 3 5 mph 1016.1mb 60f
5:54 3 6 mph 1016.1mb 60f
5:48 5 7 mph 1016.1mb 59f
5:36 6 8 mph 1016.2mb 59f
5:30 7 10 mph 1016.1mb 59f
5:24 8 10 mph 1016.1mb 59f
5:18 5 11 mph 1016.1mb 59f
5:12 11 13 mph 1016mb 59f
5:06 6 9 mph 1016.2mb 59f
5:00 3 6 mph 1016.1mb 59f
4:54 7 8 mph 1016.1mb 60f
4:48 9 13 mph 1015.8mb 60f
4:36 10 13 mph 1016mb 61f
4:30 9 13 mph 1016.1mb 62f
4:24 8 15 mph 1016.1mb 63f
4:18 7 15 mph 1016.1mb 67f
4:12 6 10 mph 1016.1mb 66f
4:06 10 11 mph 1016.2mb 62f
4:00 9 11 mph 1016.3mb 64f
3:54 8 10 mph 1016.4mb 65f
3:48 8 16 mph 1016.5mb 65f
3:36 11 17 mph 1016.6mb 64f
3:30 13 16 mph 1016.7mb 61f
3:24 11 14 mph 1016.7mb 60f
3:18 10 13 mph 1016.9mb 62f
3:12 9 13 mph 1017mb 62f
3:06 10 14 mph 1017mb 59f
3:00 13 15 mph 1017.1mb 59f
2:54 9 14 mph 1017.4mb 62f
2:48 11 13 mph 1017.4mb 61f
2:36 11 15 mph 1017.6mb 60f
2:30 10 14 mph 1017.7mb 60f
2:24 10 14 mph 1017.8mb 60f
2:18 11 14 mph 1017.9mb 60f
2:12 11 13 mph 1018mb 58f
2:06 13 14 mph 1018.2mb 58f
2:00 11 14 mph 1018.3mb 58f
1:54 11 13 mph 1018.4mb 58f
1:48 10
mph
1018.5mb 57f
1:36 9 10 mph 1018.8mb 57f
1:30 8 10 mph 1018.9mb 57f
1:24 9 10 mph 1019.1mb 57f
1:18 9 10 mph 1019.1mb 56f
1:12 8
mph
1019.2mb 58f
1:06 7 8 mph 1019.3mb 57f
1:00 7
mph
1019.3mb 57f
12:54 6 7 mph 1019.3mb 57f
12:48 6
mph
1019.4mb 57f
12:36 7 10 mph 1019.6mb 57f
12:30 7 10 mph 1019.6mb 57f
12:24 7 10 mph 1019.7mb 57f
12:18 8 10 mph 1019.7mb 57f
12:12 8 9 mph 1019.7mb 57f
12:06 8 9 mph 1019.7mb 57f
12:00 7 8 mph 1019.7mb 57f
11:54 6 7 mph 1019.7mb 58f
11:48 5 6 mph 1019.7mb 59f
11:36 5
mph
1019.7mb 58f
11:30 5 6 mph 1019.6mb 58f
11:24 6 7 mph 1019.7mb 57f
11:18 3 6 mph 1019.6mb 58f
11:12 5 6 mph 1019.5mb 57f
11:06 5 6 mph 1019.5mb 58f
11:00 3 6 mph 1019.5mb 58f
10:54 3 5 mph 1019.6mb 58f
10:48 3 6 mph 1019.6mb 57f
10:36 3 6 mph 1019.7mb 58f
10:30 5 6 mph 1019.7mb 57f
10:24 3 5 mph 1019.8mb 58f
10:18 3 6 mph 1019.8mb 58f
10:12 3 5 mph 1019.8mb 58f
10:06 2 5 mph 1019.8mb 58f
10:00 5 6 mph 1019.9mb 56f
9:54 5 6 mph 1019.9mb 57f
9:48 5 6 mph 1019.8mb 57f
9:36 5 6 mph 1019.8mb 56f
9:30 5 6 mph 1019.8mb 56f
9:24 5 6 mph 1019.7mb 56f
9:18 5 7 mph 1019.7mb 56f
9:12 6 7 mph 1019.7mb 56f
9:06 6 8 mph 1019.8mb 56f
9:00 6 7 mph 1019.9mb 56f
8:54 5 6 mph 1020mb 56f
8:48 2 5 mph 1020.1mb 57f
8:36 5 6 mph 1020mb 56f
8:30 3 5 mph 1020.1mb 56f
8:24 3 5 mph 1020.1mb 56f
8:18 2 3 mph 1020.1mb 56f
8:12 2 3 mph 1020mb 56f
8:06 3 5 mph 1019.9mb 55f
8:00 3 5 mph 1019.8mb 55f
7:36  -  1 mph 1019.6mb 55f
7:30 1
mph
1019.6mb 54f
7:24  -  2 mph 1019.5mb 54f
7:18 1 2 mph 1019.4mb 54f
7:12 2 3 mph 1019.5mb 54f
7:06 3 5 mph 1019.4mb 54f
7:00 3 5 mph 1019.5mb 54f
6:54 3
mph
1019.5mb 54f
6:48 2 3 mph 1019.6mb 54f
6:36  -  1 mph 1019.4mb 54f
6:30  -  1 mph 1019.3mb 54f
6:24  -  1 mph 1019.4mb 54f
6:18  -  2 mph 1019.4mb 54f
6:12  -  1 mph 1019.4mb 53f
6:06 1 3 mph 1019.4mb 53f
6:00 3
mph
1019.4mb 53f
5:54 2 3 mph 1019.3mb 53f
5:48 5 6 mph 1019.3mb 53f
5:36 3
mph
1019.7mb 53f
5:30 3
mph
1019.6mb 54f
5:24 2 3 mph 1019.6mb 54f
5:18  -  1 mph 1019.6mb 54f
5:12  -  1 mph 1019.7mb 54f
5:06 1 3 mph 1019.8mb 54f
5:00 1 2 mph 1019.8mb 54f
4:54 1 3 mph 1019.8mb 54f
4:48 2 5 mph 1019.8mb 54f
4:36 2
mph
1019.6mb 55f
4:30  -  1 mph 1019.6mb 55f
4:24 3 6 mph 1019.7mb 55f
4:18 3 5 mph 1019.7mb 55f
4:12 1 3 mph 1019.4mb 55f
4:06 2 5 mph 1019.4mb 55f
4:00 3 5 mph 1019.5mb 55f
3:54  -  2 mph 1019.7mb 55f
3:48 2 3 mph 1019.8mb 55f
3:36 1 2 mph 1020.2mb 55f
3:30 2
mph
1020.4mb 55f
3:24 2
mph
1020.3mb 55f
3:18  -  1 mph 1020.4mb 56f
3:12  -  2 mph 1020.6mb 56f
3:06  -  1 mph 1020.6mb 56f
3:00 1 2 mph 1020.6mb 56f
2:54  -  1 mph 1020.7mb 56f
2:48 1 3 mph 1020.7mb 56f
2:36 1
mph
1020.8mb 56f
2:30  -  1 mph 1020.9mb 56f
2:24  -  1 mph 1020.8mb 56f
2:18 1 3 mph 1020.8mb 56f
2:12 1 5 mph 1020.7mb 56f
2:06 2 6 mph 1020.7mb 56f
2:00 3 6 mph 1020.8mb 56f
1:54 5 6 mph 1020.8mb 56f
1:48 5
mph
1020.7mb 56f
1:36 6 9 mph 1020.6mb 56f
1:30 7 9 mph 1020.6mb 56f
1:24 6 10 mph 1020.6mb 56f
1:18 6 10 mph 1020.7mb 56f
1:12 5 7 mph 1020.7mb 56f
1:06 5 8 mph 1020.9mb 56f
1:00 6 9 mph 1021mb 56f
12:54 6 8 mph 1021.1mb 56f
12:48 7 8 mph 1021.2mb 56f
12:36 1 6 mph 1021.6mb 57f
12:30 2 3 mph 1021.5mb 57f
12:24 1 3 mph 1021.5mb 58f
12:18 3 6 mph 1021.4mb 58f
12:12 5 8 mph 1021.5mb 58f
12:06 5 6 mph 1021.7mb 58f
12:00 5 7 mph 1021.9mb 58f
ven. 03/24 11:54 3 9 mph 1021.8mb 58f
11:48 8 13 mph 1021.8mb 57f
11:36 3 5 mph 1021.4mb 57f
11:30 3 6 mph 1021.1mb 57f
11:24 6
mph
1021mb 57f
11:18 3 5 mph 1021.2mb 58f
11:12 3 6 mph 1021.3mb 57f
11:06 3 6 mph 1021.2mb 57f
11:00 3 6 mph 1021.3mb 57f
10:54 2 3 mph 1021.2mb 57f
10:48 2 6 mph 1021.3mb 57f
10:36 3
mph
1021.3mb 57f
10:30 3 5 mph 1021.3mb 57f
10:24 1 5 mph 1021.3mb 57f
10:18 2 3 mph 1021.3mb 57f
10:12  -  3 mph 1021.2mb 57f
10:06 2 3 mph 1021.3mb 57f
10:00 2 5 mph 1021.2mb 57f
9:54 6
mph
1021mb 57f
9:48 5 6 mph 1021mb 57f
9:36 1 3 mph 1021.2mb 58f
9:30 2 3 mph 1021.1mb 57f
9:24 2 6 mph 1020.9mb 57f
9:18 6 7 mph 1020.9mb 58f
9:12 5 7 mph 1020.9mb 58f
9:06 5 7 mph 1021mb 59f
9:00 3 6 mph 1021mb 61f
8:54 2 8 mph 1021mb 61f
8:48 6 9 mph 1020.8mb 61f
8:36 6 11 mph 1021mb 59f
8:30 8 15 mph 1021mb 59f
8:24 10 16 mph 1021mb 59f
8:18 8 14 mph 1021mb 59f
8:12 7 14 mph 1021mb 59f
8:06 8 14 mph 1021mb 59f
8:00 9 16 mph 1020.9mb 58f
7:54 10 16 mph 1020.9mb 58f
7:48 9 16 mph 1020.9mb 58f
7:36 13 23 mph 1020.7mb 58f
7:30 16 25 mph 1020.7mb 58f
7:24 14 22 mph 1020.7mb 58f
7:18 14 21 mph 1020.6mb 59f
7:12 11 17 mph 1020.6mb 59f
7:06 7 17 mph 1020.6mb 60f
7:00 9 14 mph 1020.6mb 60f
6:54 9 15 mph 1020.7mb 60f
6:48 10 18 mph 1020.7mb 60f
6:36 11 20 mph 1020.8mb 61f
6:30 10 18 mph 1020.8mb 61f
6:24 11 18 mph 1020.9mb 60f
6:18 10 21 mph 1021mb 61f
6:12 11 20 mph 1020.9mb 61f
6:06 11 22 mph 1020.8mb 61f
6:00 13 18 mph 1020.9mb 61f
5:54 13 17 mph 1020.8mb 61f
5:48 11 20 mph 1020.9mb 61f
5:36 11 18 mph 1020.9mb 62f
5:30 13 21 mph 1021mb 61f
5:24 11 21 mph 1021.2mb 61f
5:18 11 18 mph 1021.2mb 61f
5:12 9 15 mph 1021.3mb 61f
5:06 6 15 mph 1021.4mb 61f
5:00 9 21 mph 1021.4mb 60f
4:54 13 21 mph 1021.5mb 60f
4:48 14 20 mph 1021.6mb 60f
4:36 9 17 mph 1021.8mb 60f
4:30 13 16 mph 1021.9mb 59f
4:24 9 17 mph 1022mb 59f
4:18 11 16 mph 1022.2mb 59f
4:12 11 17 mph 1022.3mb 59f
4:06 11 17 mph 1022.4mb 59f
4:00 14 22 mph 1022.5mb 58f
3:54 14 18 mph 1022.4mb 59f
3:48 14 21 mph 1022.6mb 59f
3:36 14 21 mph 1022.8mb 60f
3:30 11 16 mph 1022.8mb 60f
3:24 14 20 mph 1022.9mb 60f
3:18 15 18 mph 1023mb 59f
3:12 13 21 mph 1023.1mb 59f
3:06 14 21 mph 1023.2mb 59f
3:00 16 21 mph 1023.4mb 58f
2:54 13 17 mph 1023.5mb 59f
2:48 11 15 mph 1023.5mb 59f
2:36 13 15 mph 1023.3mb 58f
2:30 13 15 mph 1023.4mb 58f
2:24 13 14 mph 1023.4mb 58f
2:18 13 16 mph 1023.5mb 58f
2:12 13 15 mph 1023.6mb 58f
2:06 13 16 mph 1023.7mb 57f
2:00 14 17 mph 1023.9mb 58f
1:54 13 18 mph 1023.9mb 58f
1:48 15 17 mph 1024mb 57f
1:36 13 15 mph 1024.1mb 58f
1:30 14 16 mph 1024.3mb 57f
1:24 14 16 mph 1024.3mb 57f
1:18 14 15 mph 1024.4mb 57f
1:12 14 16 mph 1024.5mb 57f
1:06 13 14 mph 1024.5mb 57f
1:00 13 14 mph 1024.7mb 58f
12:54 11 15 mph 1024.9mb 58f
12:48 11 14 mph 1024.9mb 57f
12:36 10 11 mph 1025mb 57f
12:30 9 10 mph 1025.1mb 57f
12:24 8 9 mph 1025.1mb 57f
12:18 8 9 mph 1025.2mb 57f
12:12 8 9 mph 1025.1mb 57f
12:06 7 8 mph 1025mb 58f
12:00 7
mph
1024.9mb 57f
11:36 6
mph
1025mb 56f
11:30 6
mph
1024.9mb 57f
11:24 5 6 mph 1025mb 56f
11:18 6
mph
1025.1mb 56f
11:12 5 6 mph 1025.1mb 57f
11:06 5 6 mph 1025.2mb 57f
11:00 5 6 mph 1025.1mb 57f
10:54 5 6 mph 1025.1mb 57f
10:48 5 6 mph 1025.1mb 56f
10:36 3 5 mph 1025.1mb 57f
10:30 3 5 mph 1025.1mb 57f
10:24 3 5 mph 1025.1mb 57f
10:18 5
mph
1025.1mb 56f
10:12 3 5 mph 1025mb 57f
10:06 5
mph
1025mb 56f
10:00 3
mph
1025mb 57f
9:54 2 3 mph 1025mb 57f
9:48 2
mph
1025.1mb 58f
9:36 1 2 mph 1025.1mb 58f
9:30 1 2 mph 1025mb 58f
9:24 1 2 mph 1024.9mb 58f
9:18 1 2 mph 1025mb 57f
9:12 2
mph
1024.9mb 58f
9:06 1 2 mph 1024.8mb 58f
9:00 2 3 mph 1024.8mb 57f
8:54 2 3 mph 1024.7mb 57f
8:48 2 3 mph 1024.7mb 57f
8:36 2 3 mph 1024.7mb 57f
8:30 2 3 mph 1024.7mb 57f
8:24 2 3 mph 1024.6mb 57f
8:18 2 3 mph 1024.5mb 56f
8:12 2 3 mph 1024.6mb 56f
8:06 2 3 mph 1024.6mb 55f
8:00 2 3 mph 1024.7mb 55f
7:54 2 3 mph 1024.6mb 54f
7:48 3
mph
1024.6mb 53f
7:36 3
mph
1024.5mb 53f
7:30 2 3 mph 1024.5mb 53f
7:24 2
mph
1024.4mb 52f
7:18 2 3 mph 1024.3mb 52f
7:12 2 5 mph 1024.3mb 52f
7:06 3 5 mph 1024.2mb 52f
7:00 3 5 mph 1024.2mb 52f
6:54 3 6 mph 1024.1mb 52f
6:48 3 5 mph 1024mb 52f
6:36 3 5 mph 1023.9mb 52f
6:30 3 5 mph 1023.8mb 52f
6:24 5 7 mph 1023.7mb 52f
6:18 3 5 mph 1023.7mb 52f
6:12 3 5 mph 1023.7mb 52f
6:06 3 5 mph 1023.7mb 52f
6:00 3 5 mph 1023.6mb 52f
5:54 3 5 mph 1023.6mb 52f
5:48 3 5 mph 1023.5mb 52f
5:36 3 5 mph 1023.4mb 52f
5:30 3 5 mph 1023.3mb 52f
5:24 3 5 mph 1023.2mb 52f
5:18 3 5 mph 1023.2mb 52f
5:12 3 5 mph 1023.2mb 52f
5:06 3 5 mph 1023.2mb 52f
5:00 3 5 mph 1023.2mb 52f
4:54 5
mph
1023.2mb 52f
4:48 5 6 mph 1023.3mb 52f
4:36 5 6 mph 1023.3mb 52f
4:30 5 6 mph 1023.4mb 52f
4:24 6
mph
1023.4mb 52f
4:18 5 6 mph 1023.3mb 52f
4:12 5 6 mph 1023.3mb 51f
4:06 5
mph
1023.3mb 51f
4:00 5 6 mph 1023.3mb 51f
3:54 5 6 mph 1023.3mb 51f
3:48 5
mph
1023.3mb 51f
3:36 3 5 mph 1023.4mb 51f
3:30 3 6 mph 1023.5mb 51f
3:24 3 5 mph 1023.5mb 51f
3:18 5
mph
1023.5mb 51f
3:12 3 5 mph 1023.4mb 51f
3:06 2 3 mph 1023.5mb 51f
3:00 2 3 mph 1023.5mb 51f
2:54 3
mph
1023.4mb 51f
2:48 2
mph
1023.5mb 52f
2:36 1 2 mph 1023.5mb 52f
2:30 2
mph
1023.5mb 52f
2:24 1 3 mph 1023.4mb 52f
2:18 2 3 mph 1023.4mb 53f
2:12 2
mph
1023.2mb 53f
2:06  -  1 mph 1023.2mb 54f
2:00  -  1 mph 1023.3mb 54f
1:54  -  1 mph 1023.1mb 54f
1:48  -  2 mph 1023.2mb 54f
1:36 3 5 mph 1023.2mb 54f
1:30 2 3 mph 1023.1mb 54f
1:24 2 3 mph 1023.2mb 54f
1:18 3 5 mph 1023.2mb 54f
1:12 3
mph
1023.3mb 54f
1:06 3 5 mph 1023.3mb 55f
1:00 3 5 mph 1023.3mb 54f
12:54 5 6 mph 1023.2mb 54f
12:48 3 5 mph 1023.3mb 55f
12:36 2 3 mph 1023.3mb 55f
12:30 3 5 mph 1023.2mb 55f
12:24 3 6 mph 1023.2mb 56f
12:18 3 5 mph 1023.1mb 56f
12:12 7 9 mph 1023.1mb 56f
12:06 2 6 mph 1023mb 56f
12:00 6 10 mph 1022.8mb 56f
jeu. 03/23 11:54 2 3 mph 1022.8mb 56f
11:48 3 5 mph 1022.7mb 56f
11:36 5 6 mph 1022.6mb 56f
11:30 2 6 mph 1022.6mb 56f
11:24 3 6 mph 1022.4mb 56f
11:18 6 8 mph 1022.5mb 56f
11:12 6 7 mph 1022.4mb 56f
11:06 6 9 mph 1022.5mb 56f
11:00 8 10 mph 1022.5mb 56f
10:54 9 11 mph 1022.5mb 56f
10:48 9 11 mph 1022.5mb 56f
10:36 8 11 mph 1022.4mb 57f
10:30 7 9 mph 1022.3mb 57f
10:24 7 8 mph 1022.3mb 56f
10:18 6
mph
1022.2mb 56f
10:12 2 3 mph 1022mb 56f
10:06 1 6 mph 1021.9mb 57f
10:00 3 5 mph 1021.7mb 58f
9:54 2 3 mph 1021.6mb 58f
9:48 3 5 mph 1021.4mb 58f
9:36 7 9 mph 1021.3mb 57f
9:30 3 7 mph 1021.2mb 60f
9:24 6 7 mph 1021mb 59f
9:18 7 8 mph 1021.1mb 58f
9:12 3 9 mph 1021mb 61f
9:06 6 8 mph 1021mb 61f
9:00 3 6 mph 1021mb 61f
8:54 3 6 mph 1020.9mb 60f
8:48 2 6 mph 1020.7mb 59f
8:36 5 8 mph 1020.5mb 60f
8:30 8 10 mph 1020.5mb 60f
8:24 7 11 mph 1020.4mb 59f
8:18 8 13 mph 1020.5mb 60f
8:12 9 15 mph 1020.5mb 60f
8:06 10 15 mph 1020.6mb 60f
8:00 9 14 mph 1020.4mb 60f
7:54 10 17 mph 1020.3mb 59f
7:48 13 21 mph 1020.3mb 59f
7:36 13 22 mph 1020.2mb 60f
7:30 11 21 mph 1020.2mb 60f
7:24 13 21 mph 1020.2mb 60f
7:18 15 21 mph 1020mb 60f
7:12 14 22 mph 1020mb 61f
7:06 11 22 mph 1019.9mb 61f
7:00 14 26 mph 1019.7mb 62f
6:54 13 22 mph 1019.4mb 62f
6:48 10 18 mph 1019.4mb 63f
6:36 9 16 mph 1019.3mb 64f
6:30 11 20 mph 1019.3mb 62f
6:24 11 18 mph 1019.2mb 62f
6:18 9 17 mph 1019.1mb 64f
6:12 11 18 mph 1019mb 62f
6:06 9 18 mph 1019mb 63f
6:00 10 18 mph 1019mb 62f
5:54 13 17 mph 1019.2mb 62f
5:48 13 18 mph 1019.2mb 61f
5:36 13 21 mph 1019.1mb 62f
5:30 15 23 mph 1019.2mb 60f
5:24 21 26 mph 1019.2mb 60f
5:18 22 28 mph 1019.2mb 59f
5:12 23 28 mph 1019mb 59f
5:06 21 24 mph 1018.8mb 60f
5:00 18 24 mph 1018.8mb 61f
4:54 22 29 mph 1018.7mb 60f
4:48 20 29 mph 1018.7mb 61f
4:36 23 31 mph 1018.6mb 60f
4:30 24 32 mph 1018.5mb 60f
4:24 11 20 mph 1018.5mb 66f
4:18 13 23 mph 1018.5mb 66f
4:12 14 22 mph 1018.5mb 65f
4:06 15 22 mph 1018.6mb 66f
4:00 14 22 mph 1018.5mb 66f
3:36 16 24 mph 1019mb 64f
3:30 14 26 mph 1019.1mb 65f
3:24 17 30 mph 1019.1mb 64f
3:18 20 29 mph 1019.2mb 62f
3:12 20 30 mph 1019.1mb 62f
3:06 17 23 mph 1019.2mb 63f
3:00 18 29 mph 1019.3mb 62f
2:54 18 28 mph 1019.5mb 62f